Time;durP1;ratioP1;P1;durP2;ratioP2;P2;SDS_P1;SDS_P2;PMS_P1;PMS_P2;Temp;Humidity;BMP_temperature;BMP_pressure;BME280_temperature;BME280_humidity;BME280_pressure;Samples;Min_cycle;Max_cycle;Signal;HPM_P1;HPM_P2
2023/07/28 00:00:50;;;;;;;3.90;3.57;;;;;;;17.24;100.00;155790.66;5037771;28;20481;-80
2023/07/28 00:03:35;;;;;;;3.50;3.20;;;;;;;17.23;100.00;155789.41;5056538;28;20462;-79
2023/07/28 00:06:20;;;;;;;3.67;3.17;;;;;;;17.15;100.00;155767.28;5040203;28;20455;-79
2023/07/28 00:09:05;;;;;;;3.70;3.13;;;;;;;17.17;100.00;155772.47;5037853;28;20545;-80
2023/07/28 00:11:52;;;;;;;4.37;3.97;;;;;;;17.19;100.00;155777.66;5043875;28;20544;-80
2023/07/28 00:14:37;;;;;;;3.80;3.40;;;;;;;17.22;100.00;155785.47;5043517;28;20475;-79
2023/07/28 00:17:22;;;;;;;4.30;3.90;;;;;;;17.18;100.00;155775.09;5038819;28;21083;-80
2023/07/28 00:20:09;;;;;;;4.20;3.80;;;;;;;17.15;100.00;155768.59;5044114;28;20509;-80
2023/07/28 00:22:54;;;;;;;4.53;3.57;;;;;;;17.10;100.00;155754.25;5040735;28;20812;-80
2023/07/28 00:25:40;;;;;;;3.87;3.50;;;;;;;17.04;100.00;155741.25;5033162;28;20481;-80
2023/07/28 00:28:26;;;;;;;3.60;3.07;;;;;;;17.01;100.00;155732.13;5044096;28;20915;-80
2023/07/28 00:31:12;;;;;;;4.37;3.97;;;;;;;16.96;100.00;155720.44;5041018;28;21000;-80
2023/07/28 00:33:57;;;;;;;3.47;3.10;;;;;;;16.96;100.00;155720.44;5042664;28;20454;-80
2023/07/28 00:36:42;;;;;;;4.50;4.07;;;;;;;16.92;100.00;155710.00;5045212;28;20484;-80
2023/07/28 00:39:28;;;;;;;4.00;3.60;;;;;;;16.95;100.00;155717.81;5041963;28;20427;-80
2023/07/28 00:42:13;;;;;;;3.77;3.40;;;;;;;16.92;100.00;155710.00;5041847;28;20614;-80
2023/07/28 00:45:00;;;;;;;3.70;3.40;;;;;;;16.91;100.00;155707.44;5040726;28;21104;-80
2023/07/28 00:47:47;;;;;;;4.50;4.10;;;;;;;16.87;100.00;155697.00;5047563;28;20565;-80
2023/07/28 00:50:31;;;;;;;4.10;3.40;;;;;;;16.83;100.00;155686.59;5045192;28;21064;-81
2023/07/28 00:53:17;;;;;;;3.53;3.23;;;;;;;16.84;100.00;155689.19;5042076;28;21206;-80
2023/07/28 00:56:03;;;;;;;3.60;3.30;;;;;;;16.81;100.00;155681.38;5045816;28;20475;-80
2023/07/28 00:58:48;;;;;;;4.10;3.70;;;;;;;16.81;100.00;155681.38;5043789;28;20532;-80
2023/07/28 01:01:35;;;;;;;3.50;3.20;;;;;;;16.82;100.00;155684.00;5041949;28;20450;-80
2023/07/28 01:04:20;;;;;;;3.83;3.17;;;;;;;16.81;100.00;155681.38;5040491;28;20437;-80
2023/07/28 01:07:11;;;;;;;4.13;3.47;;;;;;;16.78;100.00;155673.59;5037676;28;20517;-80
2023/07/28 01:10:02;;;;;;;3.87;3.47;;;;;;;16.78;100.00;155672.28;5046896;28;20496;-80
2023/07/28 01:12:48;;;;;;;4.30;3.90;;;;;;;16.73;100.00;155660.53;5049816;28;20450;-80
2023/07/28 01:15:33;;;;;;;4.20;3.80;;;;;;;16.72;100.00;155656.66;5055851;28;20558;-80
2023/07/28 01:18:19;;;;;;;4.40;4.00;;;;;;;16.68;100.00;155647.53;5047095;28;20788;-80
2023/07/28 01:21:07;;;;;;;4.10;3.70;;;;;;;16.64;100.00;155637.16;5038987;28;20538;-80
2023/07/28 01:23:57;;;;;;;4.00;3.60;;;;;;;16.65;100.00;155639.78;5045577;28;20516;-80
2023/07/28 01:26:44;;;;;;;4.27;3.87;;;;;;;16.64;100.00;155637.16;5044015;28;20453;-80
2023/07/28 01:29:30;;;;;;;3.50;3.20;;;;;;;16.62;100.00;155630.66;5049770;28;20426;-81
2023/07/28 01:32:15;;;;;;;5.10;3.63;;;;;;;16.54;100.00;155611.16;5046874;28;20454;-80
2023/07/28 01:35:01;;;;;;;6.03;3.90;;;;;;;16.53;100.00;155608.53;5045034;28;20810;-80
2023/07/28 01:37:50;;;;;;;3.87;3.53;;;;;;;16.48;100.00;155595.47;5044103;28;20454;-80
2023/07/28 01:40:35;;;;;;;3.83;3.20;;;;;;;16.45;100.00;155587.66;5042091;28;20955;-80
2023/07/28 01:43:22;;;;;;;3.73;3.40;;;;;;;16.48;100.00;155595.47;5043551;28;20646;-80
2023/07/28 01:46:08;;;;;;;4.13;3.50;;;;;;;16.46;100.00;155590.28;5045256;28;20923;-80
2023/07/28 01:48:53;;;;;;;4.20;3.80;;;;;;;16.49;100.00;155598.09;5041549;28;20450;-80
2023/07/28 01:51:38;;;;;;;4.40;3.43;;;;;;;16.47;100.00;155592.88;5054601;28;20469;-80
2023/07/28 01:54:24;;;;;;;4.20;3.53;;;;;;;16.49;100.00;155598.09;5041925;28;20493;-80
2023/07/28 01:57:09;;;;;;;4.10;3.63;;;;;;;16.47;100.00;155592.88;5041265;28;20536;-81
2023/07/28 01:59:55;;;;;;;4.03;3.23;;;;;;;16.50;100.00;155600.66;5040176;28;20443;-80
2023/07/28 02:02:40;;;;;;;4.50;3.80;;;;;;;16.51;100.00;155603.28;5049120;28;20952;-80
2023/07/28 02:05:26;;;;;;;3.97;3.57;;;;;;;16.51;100.00;155603.28;5039819;28;20920;-80
2023/07/28 02:08:11;;;;;;;3.50;3.20;;;;;;;16.49;100.00;155598.09;5046729;28;20450;-80
2023/07/28 02:10:57;;;;;;;5.43;3.70;;;;;;;16.47;100.00;155592.88;5044813;28;20893;-80
2023/07/28 02:13:42;;;;;;;3.77;3.40;;;;;;;16.47;100.00;155591.59;5044404;28;20434;-80
2023/07/28 02:16:34;;;;;;;3.70;3.20;;;;;;;16.41;100.00;155577.28;5046113;28;20841;-81
2023/07/28 02:19:19;;;;;;;3.27;3.03;;;;;;;16.40;100.00;155574.66;5044055;28;20616;-81
2023/07/28 02:22:05;;;;;;;3.73;3.43;;;;;;;16.36;100.00;155564.28;5042008;28;20461;-80
2023/07/28 02:24:50;;;;;;;4.10;3.70;;;;;;;16.37;100.00;155566.84;5043483;28;20805;-81
2023/07/28 02:27:36;;;;;;;3.50;2.90;;;;;;;16.37;100.00;155566.84;5058003;28;20462;-81
2023/07/28 02:30:21;;;;;;;3.70;3.30;;;;;;;16.36;100.00;155565.56;5036363;28;20783;-80
2023/07/28 02:33:08;;;;;;;4.13;3.53;;;;;;;16.34;100.00;155560.34;5038304;28;21038;-80
2023/07/28 02:35:53;;;;;;;4.03;3.17;;;;;;;16.34;100.00;155560.34;5046129;28;20485;-80
2023/07/28 02:38:38;;;;;;;4.33;3.60;;;;;;;16.34;100.00;155559.06;5043950;28;20450;-80
2023/07/28 02:41:24;;;;;;;3.70;3.40;;;;;;;16.37;100.00;155566.84;5038253;28;20888;-80
2023/07/28 02:44:09;;;;;;;4.10;3.70;;;;;;;16.36;100.00;155564.28;5044299;28;20828;-80
2023/07/28 02:46:55;;;;;;;4.03;3.63;;;;;;;16.34;100.00;155560.34;5045285;28;20454;-81
2023/07/28 02:49:43;;;;;;;3.97;3.53;;;;;;;16.33;100.00;155557.78;5044316;28;20454;-80
2023/07/28 02:52:29;;;;;;;3.90;3.50;;;;;;;16.36;100.00;155564.28;5042981;28;20424;-80
2023/07/28 02:55:14;;;;;;;3.57;3.27;;;;;;;16.37;100.00;155566.84;5054088;28;20459;-81
2023/07/28 02:57:59;;;;;;;5.53;3.33;;;;;;;16.33;100.00;155556.47;5040964;28;20457;-81
2023/07/28 03:00:46;;;;;;;3.90;3.60;;;;;;;16.32;100.00;155555.16;5044542;28;20492;-80
2023/07/28 03:03:33;;;;;;;3.73;3.40;;;;;;;16.34;100.00;155559.06;5043846;28;20455;-81
2023/07/28 03:06:19;;;;;;;3.30;3.00;;;;;;;16.34;100.00;155559.06;5056320;28;20443;-80
2023/07/28 03:09:04;;;;;;;3.20;2.90;;;;;;;16.36;100.00;155564.28;5043946;28;20446;-81
2023/07/28 03:11:59;;;;;;;3.70;3.40;;;;;;;16.39;100.00;155572.06;5059381;28;21036;-81
2023/07/28 03:14:44;;;;;;;4.20;3.50;;;;;;;16.42;100.00;155579.88;5043581;28;20462;-80
2023/07/28 03:17:30;;;;;;;4.77;3.20;;;;;;;16.44;100.00;155585.09;5058606;28;20575;-81
2023/07/28 03:20:15;;;;;;;3.93;3.23;;;;;;;16.45;100.00;155588.97;5036760;28;20609;-80
2023/07/28 03:23:02;;;;;;;3.40;3.10;;;;;;;16.49;100.00;155596.78;5041619;28;21056;-80
2023/07/28 03:25:47;;;;;;;3.93;3.40;;;;;;;16.50;100.00;155600.66;5042441;28;20439;-80
2023/07/28 03:28:32;;;;;;;3.30;3.00;;;;;;;16.52;100.00;155604.59;5042040;28;20450;-80
2023/07/28 03:31:19;;;;;;;3.40;2.87;;;;;;;16.54;100.00;155611.16;5055322;28;20442;-80
2023/07/28 03:34:04;;;;;;;4.10;3.70;;;;;;;16.57;100.00;155617.66;5038580;28;20935;-80
2023/07/28 03:36:50;;;;;;;3.60;3.03;;;;;;;16.59;100.00;155624.16;5042260;28;20548;-80
2023/07/28 03:39:37;;;;;;;3.73;3.40;;;;;;;16.62;100.00;155630.66;5044134;28;20907;-80
2023/07/28 03:42:23;;;;;;;3.60;3.13;;;;;;;16.62;100.00;155630.66;5040676;28;20731;-80
2023/07/28 03:45:09;;;;;;;4.30;3.10;;;;;;;16.64;100.00;155635.84;5041505;28;20431;-81
2023/07/28 03:47:54;;;;;;;3.50;3.20;;;;;;;16.62;100.00;155631.97;5045194;28;20971;-80
2023/07/28 03:50:40;;;;;;;3.90;3.57;;;;;;;16.61;100.00;155629.34;5041397;28;20447;-80
2023/07/28 03:53:25;;;;;;;4.13;3.73;;;;;;;16.58;100.00;155621.53;5049161;28;20482;-80
2023/07/28 03:56:12;;;;;;;3.77;3.40;;;;;;;16.64;100.00;155637.16;5043701;28;20556;-80
2023/07/28 03:58:58;;;;;;;5.13;3.90;;;;;;;16.66;100.00;155642.34;5039496;28;20824;-80
2023/07/28 04:01:43;;;;;;;3.83;3.47;;;;;;;16.73;100.00;155659.28;5040434;28;20459;-80
2023/07/28 04:04:31;;;;;;;5.17;3.80;;;;;;;16.73;100.00;155659.28;5043370;28;20453;-80
2023/07/28 04:07:16;;;;;;;3.70;3.40;;;;;;;16.77;100.00;155670.97;5061551;28;20822;-81
2023/07/28 04:10:02;;;;;;;4.00;3.60;;;;;;;16.79;100.00;155674.88;5033560;28;20569;-80
2023/07/28 04:12:48;;;;;;;4.10;3.33;;;;;;;16.78;100.00;155673.59;5040539;28;20797;-80
2023/07/28 04:15:34;;;;;;;5.20;3.73;;;;;;;16.78;100.00;155673.59;5045028;28;20477;-81
2023/07/28 04:18:20;;;;;;;4.23;3.73;;;;;;;16.78;100.00;155672.28;5040304;28;21503;-80
2023/07/28 04:21:08;;;;;;;3.33;3.03;;;;;;;16.76;100.00;155667.09;5043183;28;20566;-80
2023/07/28 04:26:49;;;;;;;3.43;3.13;;;;;;;16.75;100.00;155664.47;5011391;28;20491;-81
2023/07/28 04:29:36;;;;;;;3.10;2.80;;;;;;;16.76;100.00;155668.38;5020551;28;20945;-81
2023/07/28 04:32:45;;;;;;;3.10;2.63;;;;;;;16.77;100.00;155670.97;5036005;22;20494;-81
2023/07/28 04:35:35;;;;;;;5.70;4.17;;;;;;;16.80;100.00;155678.78;5033529;28;20512;-81
2023/07/28 04:38:43;;;;;;;4.03;3.63;;;;;;;16.80;100.00;155678.78;5047109;28;20519;-80
2023/07/28 04:41:29;;;;;;;4.30;3.90;;;;;;;16.82;100.00;155682.69;5032408;28;20562;-80
2023/07/28 04:44:14;;;;;;;9.73;5.07;;;;;;;16.82;100.00;155682.69;5047860;28;20446;-80
2023/07/28 04:47:04;;;;;;;3.97;3.60;;;;;;;16.83;100.00;155686.59;5031873;28;20473;-80
2023/07/28 04:49:49;;;;;;;3.43;3.13;;;;;;;16.84;100.00;155689.19;5031101;28;20940;-81
2023/07/28 04:56:07;;;;;;;4.53;3.43;;;;;;;16.86;100.00;155694.41;5002326;26;20555;-81
2023/07/28 04:59:01;;;;;;;4.10;3.70;;;;;;;16.84;100.00;155689.19;5008609;28;20764;-81
2023/07/28 05:01:50;;;;;;;4.40;3.90;;;;;;;16.83;100.00;155685.31;5016402;28;20447;-81
2023/07/28 05:04:37;;;;;;;3.80;3.50;;;;;;;16.84;100.00;155689.19;5017059;28;21000;-80
2023/07/28 05:07:23;;;;;;;4.10;3.70;;;;;;;16.82;100.00;155684.00;5004326;28;20906;-80
2023/07/28 05:10:09;;;;;;;3.43;3.13;;;;;;;16.84;100.00;155687.88;5016872;28;20546;-80
2023/07/28 05:12:54;;;;;;;4.50;4.10;;;;;;;16.85;100.00;155691.81;5017185;28;20452;-80
2023/07/28 05:15:39;;;;;;;4.23;3.83;;;;;;;16.88;100.00;155699.63;5015142;28;20884;-83
2023/07/28 05:18:29;;;;;;;4.00;3.27;;;;;;;16.89;100.00;155702.19;5014817;28;20445;-83
2023/07/28 05:21:37;;;;;;;4.07;3.47;;;;;;;16.90;100.00;155703.50;5017459;28;20440;-83
2023/07/28 05:24:22;;;;;;;5.20;4.30;;;;;;;16.89;100.00;155702.19;5003347;28;20875;-82
2023/07/28 05:27:08;;;;;;;5.10;4.07;;;;;;;16.90;100.00;155703.50;5003867;28;20586;-81
2023/07/28 05:29:53;;;;;;;4.47;3.90;;;;;;;16.90;100.00;155704.81;5017863;28;21025;-79
2023/07/28 05:32:38;;;;;;;4.80;4.30;;;;;;;16.90;100.00;155704.81;5003866;28;20599;-80
2023/07/28 05:35:27;;;;;;;5.50;4.30;;;;;;;16.90;100.00;155704.81;5004514;28;20452;-80
2023/07/28 05:38:13;;;;;;;5.20;4.70;;;;;;;16.92;100.00;155708.69;5017162;28;20506;-79
2023/07/28 05:41:07;;;;;;;7.83;5.00;;;;;;;16.92;100.00;155710.00;5018613;28;20602;-80
2023/07/28 05:43:52;;;;;;;4.30;3.90;;;;;;;16.94;100.00;155715.19;5005072;28;20452;-80
2023/07/28 05:46:37;;;;;;;4.07;3.77;;;;;;;16.95;100.00;155717.81;5001812;28;20440;-80
2023/07/28 05:49:22;;;;;;;3.97;3.57;;;;;;;16.96;100.00;155719.13;5004729;28;20455;-79
2023/07/28 05:52:08;;;;;;;4.77;4.27;;;;;;;16.95;100.00;155716.50;5004768;28;20547;-79
2023/07/28 05:54:55;;;;;;;5.97;4.60;;;;;;;16.97;100.00;155721.75;5005196;28;24459;-79
2023/07/28 05:57:40;;;;;;;4.57;4.17;;;;;;;16.99;100.00;155728.25;5016403;28;20538;-79
2023/07/28 06:00:28;;;;;;;6.83;4.03;;;;;;;17.01;100.00;155733.44;5009551;28;20472;-80
2023/07/28 06:03:13;;;;;;;4.57;4.17;;;;;;;17.05;100.00;155743.81;5008727;28;20459;-80
2023/07/28 06:06:19;;;;;;;5.70;4.87;;;;;;;17.08;100.00;155749.06;5007966;28;20545;-79
2023/07/28 06:09:04;;;;;;;4.57;4.17;;;;;;;17.09;100.00;155751.63;5008153;28;20451;-79
2023/07/28 06:11:50;;;;;;;5.40;4.90;;;;;;;17.12;100.00;155759.47;5000573;28;20452;-79
2023/07/28 06:14:36;;;;;;;5.30;4.43;;;;;;;17.12;100.00;155760.78;5008289;28;20675;-79
2023/07/28 06:17:23;;;;;;;5.13;4.43;;;;;;;17.13;100.00;155763.34;4997258;28;20464;-79
2023/07/28 06:20:10;;;;;;;5.63;4.67;;;;;;;17.11;100.00;155756.84;5001796;28;20599;-79
2023/07/28 06:22:55;;;;;;;5.10;4.53;;;;;;;17.11;100.00;155756.84;5016407;28;20966;-79
2023/07/28 06:25:43;;;;;;;4.60;4.20;;;;;;;17.09;100.00;155751.63;4997040;28;20460;-79
2023/07/28 06:28:30;;;;;;;4.67;4.27;;;;;;;17.08;100.00;155749.06;4998107;28;20595;-79
2023/07/28 06:31:16;;;;;;;4.87;4.20;;;;;;;17.11;100.00;155756.84;5007945;28;20460;-79
2023/07/28 06:34:20;;;;;;;4.50;3.90;;;;;;;17.11;100.00;155758.16;5015972;28;21336;-78
2023/07/28 06:37:06;;;;;;;4.33;3.93;;;;;;;17.13;100.00;155762.06;5006039;28;20467;-79
2023/07/28 06:39:51;;;;;;;4.80;4.23;;;;;;;17.14;100.00;155764.66;5014054;28;20538;-79
2023/07/28 06:42:37;;;;;;;5.27;3.53;;;;;;;17.18;100.00;155775.09;5007980;28;20440;-78
2023/07/28 06:45:23;;;;;;;4.50;4.10;;;;;;;17.19;100.00;155777.66;4998097;28;20478;-78
2023/07/28 06:48:09;;;;;;;4.03;3.63;;;;;;;17.20;100.00;155781.59;5014591;28;20925;-79
2023/07/28 06:50:54;;;;;;;4.00;3.60;;;;;;;17.26;100.00;155795.91;5000816;28;20460;-78
2023/07/28 06:53:40;;;;;;;4.27;3.87;;;;;;;17.30;100.00;155806.28;5006759;28;21064;-78
2023/07/28 06:56:26;;;;;;;4.90;3.60;;;;;;;17.32;100.00;155811.50;5035238;28;20813;-78
2023/07/28 06:59:11;;;;;;;4.70;3.80;;;;;;;17.33;100.00;155814.13;5039570;28;20450;-78
2023/07/28 07:01:58;;;;;;;4.37;3.97;;;;;;;17.36;100.00;155823.25;5036903;28;20493;-78
2023/07/28 07:04:44;;;;;;;4.90;4.10;;;;;;;17.40;100.00;155833.63;5018289;28;20988;-78
2023/07/28 07:07:29;;;;;;;6.50;4.80;;;;;;;17.43;100.00;155840.13;5034438;28;20451;-78
2023/07/28 07:10:15;;;;;;;4.90;4.20;;;;;;;17.46;100.00;155847.94;5035446;28;20486;-78
2023/07/28 07:13:00;;;;;;;4.70;4.30;;;;;;;17.48;100.00;155853.16;5023365;28;20902;-78
2023/07/28 07:15:46;;;;;;;5.00;4.47;;;;;;;17.49;100.00;155855.78;5035893;28;20455;-78
2023/07/28 07:18:33;;;;;;;5.10;4.60;;;;;;;17.54;100.00;155868.84;5040995;28;20434;-78
2023/07/28 07:21:18;;;;;;;5.50;4.00;;;;;;;17.56;100.00;155874.03;5033704;28;20443;-78
2023/07/28 07:24:04;;;;;;;4.57;4.13;;;;;;;17.59;100.00;155881.84;5035866;28;20446;-78
2023/07/28 07:26:50;;;;;;;6.80;4.07;;;;;;;17.59;100.00;155883.16;5021759;28;20439;-78
2023/07/28 07:29:35;;;;;;;5.03;4.00;;;;;;;17.62;100.00;155889.66;5035656;28;20463;-77
2023/07/28 07:32:21;;;;;;;5.57;4.97;;;;;;;17.67;100.00;155902.69;5024907;28;20466;-78
2023/07/28 07:35:09;;;;;;;4.73;4.30;;;;;;;17.75;100.00;155922.19;5037659;28;20521;-77
2023/07/28 07:37:54;;;;;;;8.30;5.13;;;;;;;17.81;100.00;155939.16;5033175;28;20603;-77
2023/07/28 07:40:39;;;;;;;7.60;5.10;;;;;;;17.87;100.00;155954.72;5035214;28;20447;-77
2023/07/28 07:43:25;;;;;;;5.40;4.60;;;;;;;17.92;100.00;155967.78;5037032;28;20825;-77
2023/07/28 07:46:11;;;;;;;5.90;4.80;;;;;;;17.99;100.00;155986.00;5032531;28;20682;-77
2023/07/28 07:48:57;;;;;;;5.43;4.57;;;;;;;18.07;100.00;156005.53;5033958;28;21222;-77
2023/07/28 07:51:44;;;;;;;7.57;4.90;;;;;;;18.13;100.00;156021.19;5033432;28;20711;-77
2023/07/28 07:54:29;;;;;;;5.40;4.40;;;;;;;18.19;100.00;156038.09;5024075;28;21118;-77
2023/07/28 07:57:14;;;;;;;5.20;4.70;;;;;;;18.20;100.00;156040.69;5002555;28;20934;-77
2023/07/28 08:00:00;;;;;;;6.53;4.87;;;;;;;18.20;100.00;156040.69;5004260;28;20542;-77
2023/07/28 08:02:45;;;;;;;4.93;4.43;;;;;;;18.23;100.00;156048.53;5005976;28;20950;-77
2023/07/28 08:05:31;;;;;;;7.60;4.93;;;;;;;18.27;100.00;156056.34;5002971;28;20953;-77
2023/07/28 08:08:19;;;;;;;5.43;4.93;;;;;;;18.30;100.00;156064.13;5004444;28;20441;-77
2023/07/28 08:11:04;;;;;;;4.40;3.97;;;;;;;18.36;100.00;156079.75;5004970;28;20479;-77
2023/07/28 08:13:49;;;;;;;5.50;4.70;;;;;;;18.37;100.00;156082.38;5004720;28;20579;-77
2023/07/28 08:16:35;;;;;;;6.07;4.47;;;;;;;18.40;100.00;156091.47;5003320;28;20463;-77
2023/07/28 08:19:20;;;;;;;4.70;4.30;;;;;;;18.46;100.00;156105.81;5003571;28;20448;-77
2023/07/28 08:22:06;;;;;;;4.90;4.40;;;;;;;18.53;100.00;156125.38;5003819;28;20432;-77
2023/07/28 08:24:52;;;;;;;5.10;4.60;;;;;;;18.61;100.00;156146.22;5005995;28;20598;-77
2023/07/28 08:27:38;;;;;;;5.03;4.53;;;;;;;18.69;100.00;156167.06;5004942;28;20567;-77
2023/07/28 08:30:23;;;;;;;6.87;4.50;;;;;;;18.75;100.00;156182.72;5004246;28;20463;-77
2023/07/28 08:33:08;;;;;;;4.83;4.27;;;;;;;18.89;100.00;156217.91;5004658;28;20466;-77
2023/07/28 08:35:53;;;;;;;5.40;4.90;;;;;;;19.15;100.00;156284.34;5004352;28;20468;-77
2023/07/28 08:38:38;;;;;;;5.00;4.10;;;;;;;19.26;100.00;156314.34;5004569;28;20835;-77
2023/07/28 08:41:25;;;;;;;4.10;3.70;;;;;;;19.39;100.00;156348.28;5005582;28;20444;-77
2023/07/28 08:44:11;;;;;;;4.50;4.10;;;;;;;19.53;100.00;156383.47;5003766;28;20460;-77
2023/07/28 08:46:56;;;;;;;3.90;3.60;;;;;;;19.65;100.00;156414.75;5005383;28;20892;-77
2023/07/28 08:49:41;;;;;;;3.60;3.20;;;;;;;19.67;100.00;156418.69;5003992;28;20479;-78
2023/07/28 08:52:27;;;;;;;4.23;3.80;;;;;;;19.73;100.00;156434.28;5003445;28;20440;-77
2023/07/28 08:55:13;;;;;;;3.97;3.57;;;;;;;19.73;100.00;156434.28;5022692;28;20482;-78
2023/07/28 08:58:14;;;;;;;4.00;3.43;;;;;;;19.77;100.00;156444.75;5033141;28;20466;-78
2023/07/28 09:01:01;;;;;;;4.60;4.10;;;;;;;19.88;100.00;156473.44;5032608;28;20676;-78
2023/07/28 09:03:47;;;;;;;7.30;5.03;;;;;;;19.92;100.00;156483.84;5034669;28;20446;-78
2023/07/28 09:06:32;;;;;;;5.30;4.63;;;;;;;19.97;100.00;156498.19;5030711;28;20933;-78
2023/07/28 09:09:21;;;;;;;6.10;4.87;;;;;;;19.96;100.00;156494.31;5033433;28;20914;-78
2023/07/28 09:12:08;;;;;;;4.90;4.27;;;;;;;20.04;100.00;156515.19;5032408;28;20528;-78
2023/07/28 09:14:58;;;;;;;5.10;4.60;;;;;;;19.99;100.00;156502.09;5031402;28;20968;-77
2023/07/28 09:17:44;;;;;;;5.23;4.50;;;;;;;19.99;100.00;156502.09;5034495;28;20462;-78
2023/07/28 09:20:35;;;;;;;5.27;4.77;;;;;;;19.92;100.00;156483.84;5034042;28;20960;-78
2023/07/28 09:23:28;;;;;;;5.13;4.73;;;;;;;19.98;100.00;156499.50;5036046;28;20438;-78
2023/07/28 09:26:14;;;;;;;5.13;4.57;;;;;;;19.93;100.00;156487.78;5032687;28;20973;-78
2023/07/28 09:29:00;;;;;;;5.70;5.20;;;;;;;19.86;100.00;156468.19;5033731;28;20486;-78
2023/07/28 09:31:48;;;;;;;6.33;5.60;;;;;;;19.87;100.00;156470.81;5029878;28;20500;-78
2023/07/28 09:34:34;;;;;;;6.30;4.73;;;;;;;19.84;100.00;156464.31;5035446;28;20462;-78
2023/07/28 09:37:20;;;;;;;6.40;5.77;;;;;;;19.78;100.00;156447.31;5035638;28;20657;-78
2023/07/28 09:40:13;;;;;;;6.10;5.50;;;;;;;19.95;100.00;156493.00;5036674;28;20451;-78
2023/07/28 09:42:58;;;;;;;6.43;5.80;;;;;;;20.06;100.00;156520.38;5036699;28;20980;-78
2023/07/28 09:45:43;;;;;;;6.10;5.50;;;;;;;20.08;100.00;156524.25;5033960;28;20948;-78
2023/07/28 09:48:31;;;;;;;6.80;5.70;;;;;;;20.14;100.00;156539.94;5035228;28;20790;-77
2023/07/28 09:51:19;;;;;;;5.60;5.10;;;;;;;20.21;100.00;156558.19;5033625;28;20458;-77
2023/07/28 09:54:06;;;;;;;5.67;4.93;;;;;;;20.34;100.00;156593.44;5038222;28;20482;-77
2023/07/28 09:56:53;;;;;;;6.57;5.27;;;;;;;20.48;100.00;156628.66;5033071;28;20447;-77
2023/07/28 09:59:40;;;;;;;5.73;5.13;;;;;;;20.52;100.00;156640.41;5034943;28;20451;-77
2023/07/28 10:02:26;;;;;;;6.83;5.00;;;;;;;20.61;100.00;156663.91;5037257;28;20496;-77
2023/07/28 10:05:15;;;;;;;5.47;4.93;;;;;;;20.64;100.00;156671.72;5036988;28;20492;-77
2023/07/28 10:08:00;;;;;;;6.43;4.40;;;;;;;20.71;100.00;156688.66;5033226;28;20474;-77
2023/07/28 10:10:45;;;;;;;5.43;4.53;;;;;;;20.86;100.00;156726.53;5035814;28;20462;-78
2023/07/28 10:13:40;;;;;;;5.57;4.40;;;;;;;20.95;100.00;156750.00;5035343;28;20986;-78
2023/07/28 10:16:32;;;;;;;8.77;5.00;;;;;;;20.87;100.00;156729.09;5034305;28;20471;-78
2023/07/28 10:19:20;;;;;;;6.33;4.80;;;;;;;20.79;100.00;156708.22;5035399;28;20589;-78
2023/07/28 10:22:09;;;;;;;5.87;5.30;;;;;;;20.81;100.00;156713.47;5035037;28;20605;-78
2023/07/28 10:24:57;;;;;;;5.60;5.10;;;;;;;20.81;100.00;156714.75;5036428;28;20471;-78
2023/07/28 10:27:46;;;;;;;5.17;4.47;;;;;;;20.79;100.00;156709.53;5037985;28;20443;-78
2023/07/28 10:30:37;;;;;;;5.80;4.43;;;;;;;20.74;100.00;156696.50;5036295;28;20458;-78
2023/07/28 10:33:33;;;;;;;4.70;4.30;;;;;;;20.71;100.00;156687.34;5041422;28;20460;-78
2023/07/28 10:36:19;;;;;;;5.17;3.93;;;;;;;20.78;100.00;156705.66;5038629;28;20575;-78
2023/07/28 10:39:16;;;;;;;4.30;3.90;;;;;;;20.75;100.00;156697.81;5036022;28;20825;-78
2023/07/28 10:42:20;;;;;;;4.90;4.40;;;;;;;20.78;100.00;156705.66;5029643;28;20620;-81
2023/07/28 10:45:09;;;;;;;3.13;2.83;;;;;;;20.80;100.00;156710.84;5026784;28;20458;-84
2023/07/28 10:47:56;;;;;;;3.90;3.03;;;;;;;20.84;100.00;156721.28;5033282;28;20466;-84
2023/07/28 10:50:42;;;;;;;3.47;2.50;;;;;;;20.80;100.00;156710.84;5031622;28;20462;-84
2023/07/28 10:53:27;;;;;;;3.23;2.60;;;;;;;20.82;100.00;156717.38;5012824;28;20984;-84
2023/07/28 10:56:14;;;;;;;3.30;3.00;;;;;;;21.01;100.00;156765.66;5033433;28;20479;-84
2023/07/28 10:59:00;;;;;;;2.30;2.10;;;;;;;21.04;100.00;156773.50;5029630;28;20485;-84
2023/07/28 11:01:45;;;;;;;2.23;2.03;;;;;;;21.01;100.00;156766.97;5037386;28;20586;-84
2023/07/28 11:04:30;;;;;;;2.57;1.70;;;;;;;21.06;100.00;156780.06;5033359;28;20506;-85
2023/07/28 11:07:16;;;;;;;2.00;1.70;;;;;;;21.17;99.09;156807.47;5034080;28;20541;-85
2023/07/28 11:10:02;;;;;;;1.77;1.57;;;;;;;21.24;100.00;156825.72;5032840;28;20450;-85
2023/07/28 11:12:51;;;;;;;1.90;1.40;;;;;;;21.32;94.42;156846.63;5036935;28;20457;-84
2023/07/28 11:15:36;;;;;;;2.43;1.47;;;;;;;21.46;96.73;156883.19;5030282;28;20486;-84
2023/07/28 11:18:21;;;;;;;1.80;1.30;;;;;;;21.58;97.73;156913.16;5035723;28;20471;-85
2023/07/28 11:21:07;;;;;;;2.27;1.30;;;;;;;21.55;100.00;156906.66;5035991;28;20483;-85
2023/07/28 11:23:54;;;;;;;2.23;1.93;;;;;;;21.61;98.03;156922.31;5034355;28;20455;-85
2023/07/28 11:26:40;;;;;;;4.50;1.67;;;;;;;21.68;94.29;156940.59;5030824;28;20804;-85
2023/07/28 11:29:27;;;;;;;1.83;1.50;;;;;;;21.82;93.35;156977.16;5025382;28;20458;-86
2023/07/28 11:32:13;;;;;;;1.70;1.30;;;;;;;21.95;91.58;157008.56;5036117;28;20446;-86
2023/07/28 11:35:05;;;;;;;1.67;1.30;;;;;;;22.07;92.44;157041.22;5038622;28;20455;-86
2023/07/28 11:37:51;;;;;;;2.50;1.50;;;;;;;22.13;96.41;157056.88;5032080;28;20989;-86
2023/07/28 11:40:37;;;;;;;2.03;1.60;;;;;;;22.20;92.79;157073.84;5035665;28;20589;-86
2023/07/28 11:43:23;;;;;;;2.33;1.70;;;;;;;22.24;90.53;157084.31;5035591;28;20895;-86
2023/07/28 11:46:34;;;;;;;3.20;1.97;;;;;;;22.41;94.00;157128.69;5032703;28;20895;-86
2023/07/28 11:49:22;;;;;;;3.83;1.63;;;;;;;22.34;94.66;157110.44;5028633;28;20666;-87
2023/07/28 11:52:08;;;;;;;3.70;3.00;;;;;;;22.28;91.37;157094.75;5034763;28;20446;-87
2023/07/28 11:54:53;;;;;;;2.80;1.87;;;;;;;22.26;93.42;157089.53;5029727;28;20533;-86
2023/07/28 11:57:38;;;;;;;2.43;1.80;;;;;;;22.27;91.87;157092.13;5034131;28;20474;-86
2023/07/28 12:00:30;;;;;;;2.03;1.83;;;;;;;22.32;94.51;157105.16;5035731;28;20568;-86
2023/07/28 12:03:16;;;;;;;3.07;2.30;;;;;;;22.25;95.03;157086.91;5032230;28;20442;-86
2023/07/28 12:06:09;;;;;;;2.30;2.10;;;;;;;22.18;94.19;157069.94;5035188;28;20927;-86
2023/07/28 12:09:05;;;;;;;3.63;2.50;;;;;;;22.07;93.30;157039.88;5032515;28;20986;-85
2023/07/28 12:11:51;;;;;;;3.70;2.57;;;;;;;22.03;94.81;157030.72;5032000;28;20444;-85
2023/07/28 12:14:36;;;;;;;2.97;2.40;;;;;;;21.97;94.25;157013.78;5034374;28;20512;-85
2023/07/28 12:17:23;;;;;;;3.37;2.40;;;;;;;21.88;95.48;156990.25;5034456;28;20439;-86
2023/07/28 12:20:11;;;;;;;4.60;3.10;;;;;;;21.87;98.18;156987.69;5034392;28;20461;-85
2023/07/28 12:22:57;;;;;;;3.90;2.63;;;;;;;21.76;98.69;156961.47;5030770;28;20460;-85
2023/07/28 12:25:43;;;;;;;3.63;2.63;;;;;;;21.72;100.00;156949.75;5034790;28;20855;-85
2023/07/28 12:28:28;;;;;;;3.63;3.03;;;;;;;21.66;98.37;156935.38;5034793;28;20437;-85
2023/07/28 12:31:14;;;;;;;3.60;2.80;;;;;;;21.73;99.24;156953.69;5026326;28;20447;-86
2023/07/28 12:33:59;;;;;;;3.47;2.90;;;;;;;21.78;100.00;156966.75;5030315;28;20473;-85
2023/07/28 12:36:46;;;;;;;3.33;3.03;;;;;;;21.78;98.99;156966.75;5034708;28;20830;-86
2023/07/28 12:39:31;;;;;;;2.50;2.30;;;;;;;21.81;98.54;156974.56;5034045;28;20475;-86
2023/07/28 12:42:17;;;;;;;4.10;3.43;;;;;;;21.84;100.00;156981.09;5031942;28;20517;-86
2023/07/28 12:45:04;;;;;;;3.93;2.60;;;;;;;21.79;96.17;156968.00;5031890;28;20553;-85
2023/07/28 12:47:50;;;;;;;4.50;2.87;;;;;;;21.84;94.14;156982.38;5032237;28;21064;-85
2023/07/28 12:50:35;;;;;;;3.43;2.97;;;;;;;21.95;93.42;157008.56;5031682;28;20474;-86
2023/07/28 12:53:22;;;;;;;4.30;2.57;;;;;;;22.00;95.68;157021.63;5035423;28;20442;-86
2023/07/28 12:56:07;;;;;;;3.00;2.70;;;;;;;22.10;95.57;157047.72;5005615;28;20519;-86